Time;durP1;ratioP1;P1;durP2;ratioP2;P2;SDS_P1;SDS_P2;PMS_P1;PMS_P2;Temp;Humidity;BMP_temperature;BMP_pressure;BME280_temperature;BME280_humidity;BME280_pressure;Samples;Min_cycle;Max_cycle;Signal;HPM_P1;HPM_P2
2020/12/28 00:00:30;;;;;;;15.60;8.90;;;;;;;-2.62;96.64;92788.09;1042443;28;20025;-67
2020/12/28 00:01:01;;;;;;;10.75;8.10;;;;;;;-2.65;96.48;92788.59;1049433;28;20068;-72
2020/12/28 00:01:32;;;;;;;12.30;8.73;;;;;;;-2.69;96.77;92779.84;1042713;28;20029;-70
2020/12/28 00:02:02;;;;;;;14.15;8.63;;;;;;;-2.66;96.91;92781.16;1040946;28;20393;-68
2020/12/28 00:02:33;;;;;;;12.97;8.83;;;;;;;-2.67;96.86;92784.75;1045578;28;20039;-68
2020/12/28 00:03:03;;;;;;;11.03;8.00;;;;;;;-2.64;96.70;92779.09;1030517;28;20886;-67
2020/12/28 00:03:34;;;;;;;13.20;8.93;;;;;;;-2.66;96.51;92771.66;1030892;28;20033;-68
2020/12/28 00:04:04;;;;;;;14.10;8.30;;;;;;;-2.61;96.58;92773.47;1037748;28;20036;-70
2020/12/28 00:04:35;;;;;;;14.40;8.63;;;;;;;-2.61;96.49;92774.22;1037684;28;20875;-69
2020/12/28 00:05:07;;;;;;;15.53;9.50;;;;;;;-2.56;96.58;92772.69;1035700;28;20539;-67
2020/12/28 00:05:37;;;;;;;12.32;8.25;;;;;;;-2.57;96.51;92769.38;1033271;28;20540;-69
2020/12/28 00:06:08;;;;;;;14.00;8.67;;;;;;;-2.57;96.56;92771.16;1041235;28;20123;-68
2020/12/28 00:06:39;;;;;;;15.93;8.80;;;;;;;-2.70;96.70;92757.03;1036693;28;20052;-67
2020/12/28 00:07:09;;;;;;;13.65;8.63;;;;;;;-2.60;96.92;92769.88;1042110;28;20747;-68
2020/12/28 00:07:40;;;;;;;13.30;8.57;;;;;;;-2.69;96.81;92754.19;1039471;28;20030;-67
2020/12/28 00:08:10;;;;;;;13.27;8.60;;;;;;;-2.66;96.62;92763.94;1046731;28;20127;-67
2020/12/28 00:08:41;;;;;;;11.97;8.30;;;;;;;-2.63;96.99;92766.00;1042735;28;20025;-68
2020/12/28 00:09:11;;;;;;;13.03;8.10;;;;;;;-2.65;97.02;92765.50;1042083;28;20029;-68
2020/12/28 00:09:42;;;;;;;15.10;8.27;;;;;;;-2.60;96.84;92769.88;1040415;28;20059;-68
2020/12/28 00:10:13;;;;;;;12.17;8.20;;;;;;;-2.61;96.36;92766.53;1035069;28;20026;-69
2020/12/28 00:10:43;;;;;;;12.07;7.80;;;;;;;-2.58;96.31;92772.16;1039377;28;20017;-68
2020/12/28 00:11:18;;;;;;;12.63;7.73;;;;;;;-2.58;96.01;92772.16;1043284;28;20021;-69
2020/12/28 00:11:53;;;;;;;12.13;8.75;;;;;;;-2.57;95.62;92771.16;1034819;28;20018;-69
2020/12/28 00:12:27;;;;;;;10.45;8.25;;;;;;;-2.58;96.08;92756.78;1033615;28;20026;-67
2020/12/28 00:13:00;;;;;;;12.90;8.27;;;;;;;-2.61;95.84;92758.84;1038691;28;20026;-68
2020/12/28 00:13:30;;;;;;;11.73;8.32;;;;;;;-2.61;96.12;92752.94;1042912;28;20071;-68
2020/12/28 00:14:01;;;;;;;11.17;7.30;;;;;;;-2.62;96.38;92756.50;1040271;28;20120;-68
2020/12/28 00:14:31;;;;;;;12.17;8.33;;;;;;;-2.68;96.55;92739.59;1046190;28;20020;-68
2020/12/28 00:15:02;;;;;;;9.93;7.50;;;;;;;-2.62;96.39;92756.50;1042659;28;20078;-68
2020/12/28 00:15:32;;;;;;;11.40;8.23;;;;;;;-2.65;96.48;92755.25;1038875;28;20025;-68
2020/12/28 00:16:02;;;;;;;11.60;8.17;;;;;;;-2.73;96.32;92748.03;1040733;28;20119;-67
2020/12/28 00:16:33;;;;;;;13.00;8.50;;;;;;;-2.63;96.74;92757.53;1048057;28;20040;-68
2020/12/28 00:17:03;;;;;;;10.57;7.43;;;;;;;-2.61;96.63;92768.34;1055436;28;20086;-68
2020/12/28 00:17:34;;;;;;;11.90;7.83;;;;;;;-2.63;96.55;92752.41;1050938;28;20032;-68
2020/12/28 00:18:04;;;;;;;13.20;8.03;;;;;;;-2.62;96.36;92749.59;1045867;28;20047;-68
2020/12/28 00:18:35;;;;;;;12.47;8.00;;;;;;;-2.61;96.33;92751.13;1038784;28;20072;-68
2020/12/28 00:19:05;;;;;;;11.57;8.00;;;;;;;-2.66;96.11;92745.97;1038932;28;20152;-68
2020/12/28 00:19:36;;;;;;;13.57;8.77;;;;;;;-2.67;96.15;92744.44;1035697;28;20117;-68
2020/12/28 00:20:06;;;;;;;12.07;8.10;;;;;;;-2.58;95.88;92761.91;1037484;28;20611;-67
2020/12/28 00:20:37;;;;;;;11.50;8.63;;;;;;;-3.02;96.04;92698.97;1034706;28;20096;-68
2020/12/28 00:21:07;;;;;;;11.23;8.17;;;;;;;-2.66;96.09;92758.81;1039029;28;20097;-67
2020/12/28 00:21:38;;;;;;;11.23;7.77;;;;;;;-2.65;96.25;92757.00;1040548;28;20523;-71
2020/12/28 00:22:08;;;;;;;11.83;7.30;;;;;;;-2.64;96.04;92756.00;1042801;28;20060;-70
2020/12/28 00:22:39;;;;;;;12.50;7.77;;;;;;;-2.66;95.52;92743.41;1042539;28;20025;-68
2020/12/28 00:23:09;;;;;;;10.53;8.07;;;;;;;-2.67;95.47;92743.69;1038864;28;20033;-69
2020/12/28 00:23:40;;;;;;;13.00;8.67;;;;;;;-2.67;95.77;92733.41;1038845;28;20378;-69
2020/12/28 00:24:13;;;;;;;12.37;9.00;;;;;;;-2.69;95.97;92738.78;1034708;28;20033;-68
2020/12/28 00:24:43;;;;;;;11.98;8.32;;;;;;;-2.79;95.77;92720.81;1035087;28;20022;-67
2020/12/28 00:25:15;;;;;;;11.00;8.13;;;;;;;-2.71;96.30;92732.41;1043802;28;20032;-68
2020/12/28 00:25:45;;;;;;;13.45;8.90;;;;;;;-2.69;96.13;92736.22;1051044;28;20028;-68
2020/12/28 00:26:16;;;;;;;14.40;9.20;;;;;;;-2.68;96.06;92739.59;1051089;28;20028;-68
2020/12/28 00:26:46;;;;;;;13.03;8.67;;;;;;;-2.75;96.30;92736.47;1042451;28;20028;-68
2020/12/28 00:27:17;;;;;;;13.13;8.63;;;;;;;-2.80;96.07;92728.78;1030734;28;20083;-68
2020/12/28 00:27:48;;;;;;;13.63;9.40;;;;;;;-2.72;96.29;92735.97;1030104;28;20587;-69
2020/12/28 00:28:18;;;;;;;13.60;9.23;;;;;;;-2.73;96.21;92740.34;1038433;28;20018;-70
2020/12/28 00:28:49;;;;;;;14.60;8.97;;;;;;;-2.74;96.09;92733.66;1038549;28;20079;-68
2020/12/28 00:29:19;;;;;;;14.90;8.50;;;;;;;-2.73;95.94;92730.06;1035039;28;20671;-67
2020/12/28 00:29:49;;;;;;;12.90;8.63;;;;;;;-2.71;96.21;92727.25;1034881;28;20026;-69
2020/12/28 00:30:20;;;;;;;14.73;9.60;;;;;;;-2.71;95.81;92728.03;1034541;28;20022;-68
2020/12/28 00:30:50;;;;;;;13.90;9.43;;;;;;;-2.71;96.05;92733.16;1034684;28;20121;-69
2020/12/28 00:31:21;;;;;;;16.90;11.73;;;;;;;-2.72;95.73;92723.91;1042970;28;20040;-68
2020/12/28 00:31:52;;;;;;;14.90;9.80;;;;;;;-2.72;96.05;92725.69;1038470;28;22043;-68
2020/12/28 00:32:22;;;;;;;13.65;8.93;;;;;;;-2.74;96.27;92720.06;1034700;28;20032;-68
2020/12/28 00:32:53;;;;;;;14.17;9.33;;;;;;;-2.77;96.22;92723.91;1030309;28;20093;-68
2020/12/28 00:33:23;;;;;;;13.93;8.97;;;;;;;-2.73;95.96;92722.38;1031984;28;20732;-69
2020/12/28 00:33:54;;;;;;;15.07;8.17;;;;;;;-2.73;95.97;92719.03;1043176;28;20033;-68
2020/12/28 00:34:24;;;;;;;12.17;7.87;;;;;;;-2.75;96.14;92721.88;1047159;28;20037;-69
2020/12/28 00:34:55;;;;;;;11.33;8.10;;;;;;;-2.75;95.97;92721.88;1046823;28;20164;-69
2020/12/28 00:35:25;;;;;;;11.47;7.87;;;;;;;-2.74;96.00;92722.63;1042669;28;20029;-68
2020/12/28 00:35:56;;;;;;;12.23;8.37;;;;;;;-2.75;96.46;92727.00;1042980;28;20028;-67
2020/12/28 00:36:26;;;;;;;14.93;8.17;;;;;;;-2.75;96.28;92726.22;1051070;28;20075;-68
2020/12/28 00:36:57;;;;;;;11.53;7.80;;;;;;;-2.72;96.17;92734.16;1050442;28;20055;-68
2020/12/28 00:37:27;;;;;;;11.90;8.30;;;;;;;-2.92;96.11;92700.78;1047012;28;20032;-68
2020/12/28 00:37:58;;;;;;;12.63;7.90;;;;;;;-2.71;96.66;92733.16;1046466;28;20036;-68
2020/12/28 00:38:28;;;;;;;11.97;7.90;;;;;;;-2.69;96.73;92738.03;1042539;28;20037;-68
2020/12/28 00:38:59;;;;;;;15.57;8.57;;;;;;;-2.74;96.67;92727.78;1047094;28;20074;-68
2020/12/28 00:39:29;;;;;;;12.83;8.70;;;;;;;-2.66;96.66;92737.53;1038772;28;20040;-67
2020/12/28 00:40:00;;;;;;;12.40;8.03;;;;;;;-2.66;96.86;92738.28;1038882;28;20602;-70
2020/12/28 00:40:30;;;;;;;10.87;7.90;;;;;;;-2.66;96.64;92730.59;1038810;28;20144;-70
2020/12/28 00:41:01;;;;;;;13.00;8.47;;;;;;;-2.68;96.54;92726.75;1038772;28;20045;-68
2020/12/28 00:41:31;;;;;;;11.00;8.27;;;;;;;-2.67;96.71;92725.72;1042759;28;20041;-67
2020/12/28 00:42:02;;;;;;;11.77;7.57;;;;;;;-2.70;96.74;92727.00;1045610;28;20395;-69
2020/12/28 00:42:32;;;;;;;12.63;8.03;;;;;;;-2.72;96.68;92716.19;1047419;28;20028;-67
2020/12/28 00:43:03;;;;;;;13.13;8.57;;;;;;;-2.72;96.82;92721.34;1047042;28;20467;-67
2020/12/28 00:43:33;;;;;;;12.67;8.13;;;;;;;-2.71;96.94;92710.06;1042419;28;20032;-68
2020/12/28 00:44:04;;;;;;;13.20;8.83;;;;;;;-2.68;96.84;92714.69;1047071;28;20029;-68
2020/12/28 00:44:34;;;;;;;12.27;8.60;;;;;;;-2.69;97.17;92710.56;1047273;28;20133;-68
2020/12/28 00:45:07;;;;;;;12.53;8.50;;;;;;;-2.77;97.19;92698.25;1042801;28;20040;-68
2020/12/28 00:45:38;;;;;;;13.82;8.25;;;;;;;-2.69;97.14;92705.44;1034108;28;20033;-69
2020/12/28 00:46:09;;;;;;;12.70;8.20;;;;;;;-2.71;97.60;92702.38;1030723;28;20483;-68
2020/12/28 00:46:40;;;;;;;13.18;7.63;;;;;;;-2.68;97.60;92701.88;1036016;28;20026;-68
2020/12/28 00:47:10;;;;;;;12.33;8.70;;;;;;;-2.69;97.79;92702.88;1042982;28;20037;-69
2020/12/28 00:47:41;;;;;;;12.00;8.10;;;;;;;-2.70;97.64;92701.34;1051003;28;20020;-70
2020/12/28 00:48:12;;;;;;;11.60;7.30;;;;;;;-2.69;97.85;92699.53;1050892;28;20112;-68
2020/12/28 00:48:43;;;;;;;11.35;7.57;;;;;;;-2.68;97.60;92709.56;1034811;28;20101;-68
2020/12/28 00:49:13;;;;;;;11.17;7.70;;;;;;;-2.68;97.51;92712.13;1030509;28;20474;-68
2020/12/28 00:49:43;;;;;;;11.77;8.17;;;;;;;-2.69;97.76;92713.13;1030485;28;20559;-68
2020/12/28 00:50:14;;;;;;;11.70;8.00;;;;;;;-2.69;97.43;92708.00;1034969;28;20028;-68
2020/12/28 00:50:44;;;;;;;12.03;8.20;;;;;;;-2.72;97.22;92707.75;1034231;28;20473;-68
2020/12/28 00:51:15;;;;;;;12.50;7.80;;;;;;;-2.76;97.12;92701.59;1030418;28;20092;-68
2020/12/28 00:51:45;;;;;;;12.07;7.77;;;;;;;-2.73;97.33;92712.09;1026410;28;20026;-68
2020/12/28 00:52:16;;;;;;;13.23;8.43;;;;;;;-2.82;97.62;92700.03;1029197;28;20026;-68
2020/12/28 00:52:46;;;;;;;10.53;7.73;;;;;;;-2.75;97.52;92703.91;1043102;28;20028;-68
2020/12/28 00:53:17;;;;;;;12.23;7.90;;;;;;;-2.76;97.47;92709.28;1046880;28;20090;-68
2020/12/28 00:53:47;;;;;;;12.60;7.70;;;;;;;-2.86;97.27;92692.84;1047798;28;20076;-68
2020/12/28 00:54:18;;;;;;;12.33;8.20;;;;;;;-2.76;97.54;92710.03;1037913;28;20017;-68
2020/12/28 00:54:48;;;;;;;11.30;7.63;;;;;;;-2.78;97.43;92706.19;1034784;28;20598;-68
2020/12/28 00:55:19;;;;;;;11.87;7.63;;;;;;;-2.78;97.66;92706.97;1038720;28;20544;-68
2020/12/28 00:55:49;;;;;;;12.03;7.83;;;;;;;-2.79;97.45;92710.56;1042316;28;20031;-68
2020/12/28 00:56:20;;;;;;;11.10;7.90;;;;;;;-2.88;97.64;92699.28;1051065;28;20422;-67
2020/12/28 00:56:50;;;;;;;12.13;8.30;;;;;;;-2.83;97.86;92714.66;1046937;28;20024;-67
2020/12/28 00:57:21;;;;;;;12.00;7.80;;;;;;;-2.87;98.16;92711.84;1038143;28;20022;-68
2020/12/28 00:57:51;;;;;;;10.40;7.83;;;;;;;-2.86;98.04;92722.84;1033927;28;20864;-68
2020/12/28 00:58:22;;;;;;;12.23;8.73;;;;;;;-2.86;98.21;92725.44;1030967;28;20023;-68
2020/12/28 00:58:52;;;;;;;13.17;9.13;;;;;;;-2.85;98.43;92726.97;1038762;28;20021;-69
2020/12/28 00:59:23;;;;;;;14.10;9.10;;;;;;;-2.82;98.59;92729.03;1038581;28;20087;-70
2020/12/28 00:59:53;;;;;;;15.63;9.23;;;;;;;-2.83;98.48;92729.28;1038715;28;20032;-68
2020/12/28 01:00:23;;;;;;;12.53;9.10;;;;;;;-2.84;98.51;92733.66;1042841;28;20574;-68
2020/12/28 01:00:54;;;;;;;12.43;9.20;;;;;;;-2.86;98.64;92731.31;1040553;28;20025;-68
2020/12/28 01:01:24;;;;;;;12.67;8.53;;;;;;;-2.83;98.59;92734.41;1051050;28;20024;-68
2020/12/28 01:01:55;;;;;;;12.33;8.00;;;;;;;-2.85;98.81;92738.00;1050840;28;20051;-68
2020/12/28 01:02:26;;;;;;;12.52;8.70;;;;;;;-2.85;98.68;92738.00;1046701;28;20031;-68
2020/12/28 01:02:56;;;;;;;12.20;8.73;;;;;;;-2.84;98.81;92736.22;1042552;28;20031;-68
2020/12/28 01:03:27;;;;;;;13.83;9.00;;;;;;;-2.83;98.94;92740.31;1034589;28;20661;-68
2020/12/28 01:03:57;;;;;;;12.53;8.67;;;;;;;-2.80;99.28;92741.59;1038639;28;20025;-69
2020/12/28 01:04:28;;;;;;;10.80;7.17;;;;;;;-2.80;99.05;92742.38;1041767;28;20412;-67
2020/12/28 01:04:58;;;;;;;12.53;7.70;;;;;;;-2.83;98.99;92737.75;1047280;28;20440;-69
2020/12/28 01:05:29;;;;;;;10.57;7.67;;;;;;;-2.84;98.87;92741.34;1046880;28;20024;-68
2020/12/28 01:05:59;;;;;;;13.87;7.80;;;;;;;-2.85;98.61;92734.66;1042189;28;20025;-68
2020/12/28 01:06:30;;;;;;;17.10;8.33;;;;;;;-2.81;98.73;92734.94;1046747;28;20686;-71
2020/12/28 01:07:00;;;;;;;11.63;7.63;;;;;;;-2.83;98.81;92730.06;1038526;28;20033;-68
2020/12/28 01:07:31;;;;;;;12.30;7.90;;;;;;;-2.81;98.72;92728.00;1042804;28;20435;-68
2020/12/28 01:08:01;;;;;;;11.53;7.53;;;;;;;-2.80;98.64;92734.69;1033369;28;20049;-67
2020/12/28 01:08:31;;;;;;;9.83;7.30;;;;;;;-2.79;98.73;92732.88;1034552;28;20034;-68
2020/12/28 01:09:04;;;;;;;12.10;7.80;;;;;;;-2.79;98.26;92735.44;1038831;28;20519;-68
2020/12/28 01:09:34;;;;;;;14.38;8.30;;;;;;;-2.87;98.29;92718.75;1043125;28;20036;-69
2020/12/28 01:10:04;;;;;;;13.40;8.77;;;;;;;-2.77;98.12;92731.59;1046417;28;20032;-70
2020/12/28 01:10:35;;;;;;;10.53;7.70;;;;;;;-2.77;98.26;92736.75;1043276;28;20033;-68
2020/12/28 01:11:06;;;;;;;10.93;8.13;;;;;;;-2.78;98.34;92742.91;1038494;28;20095;-68
2020/12/28 01:11:36;;;;;;;11.03;7.40;;;;;;;-2.80;98.42;92739.81;1038355;28;20053;-69
2020/12/28 01:12:07;;;;;;;12.73;8.37;;;;;;;-2.78;98.60;92740.34;1038523;28;20033;-68
2020/12/28 01:12:37;;;;;;;13.20;8.07;;;;;;;-2.76;98.48;92740.84;1038743;28;20615;-68
2020/12/28 01:13:08;;;;;;;10.27;8.13;;;;;;;-2.78;98.51;92735.22;1042643;28;20021;-67
2020/12/28 01:13:38;;;;;;;10.03;8.00;;;;;;;-2.77;98.47;92731.59;1043007;28;20017;-71
2020/12/28 01:14:09;;;;;;;14.90;8.63;;;;;;;-2.78;98.40;92727.50;1038614;28;20516;-69
2020/12/28 01:14:40;;;;;;;10.70;7.70;;;;;;;-2.76;98.32;92733.13;1034591;28;20033;-68
2020/12/28 01:15:10;;;;;;;10.50;7.70;;;;;;;-2.77;98.33;92729.03;1034510;28;20030;-68
2020/12/28 01:15:41;;;;;;;12.20;7.70;;;;;;;-2.83;98.30;92727.50;1034849;28;20026;-69
2020/12/28 01:16:12;;;;;;;11.23;8.65;;;;;;;-2.76;98.43;92732.38;1038864;28;20026;-67
2020/12/28 01:16:43;;;;;;;10.97;7.70;;;;;;;-2.83;98.32;92722.34;1046100;28;20408;-69
2020/12/28 01:17:13;;;;;;;12.07;8.52;;;;;;;-2.83;98.10;92724.16;1046956;28;20037;-68
2020/12/28 01:17:44;;;;;;;11.77;8.20;;;;;;;-2.78;98.29;92735.22;1042245;28;20800;-72
2020/12/28 01:18:14;;;;;;;11.27;8.30;;;;;;;-2.78;98.19;92736.97;1036926;28;20105;-68
2020/12/28 01:18:45;;;;;;;11.80;7.73;;;;;;;-2.80;98.25;92736.47;1038486;28;20646;-69
2020/12/28 01:19:15;;;;;;;10.60;8.00;;;;;;;-2.79;98.57;92738.78;1038785;28;20026;-68
2020/12/28 01:19:46;;;;;;;11.30;8.03;;;;;;;-2.78;98.80;92742.91;1042470;28;20503;-68
2020/12/28 01:20:16;;;;;;;13.20;8.80;;;;;;;-2.85;98.53;92732.09;1042837;28;20167;-68
2020/12/28 01:20:47;;;;;;;12.03;8.70;;;;;;;-2.76;98.86;92743.41;1042637;28;20028;-68
2020/12/28 01:21:20;;;;;;;12.70;8.47;;;;;;;-2.81;98.65;92735.72;1042953;28;20498;-68
2020/12/28 01:21:51;;;;;;;12.63;8.35;;;;;;;-2.73;98.80;92745.47;1026436;28;20051;-68
2020/12/28 01:22:21;;;;;;;12.67;8.43;;;;;;;-2.74;98.56;92738.78;1026457;28;20034;-68
2020/12/28 01:22:52;;;;;;;12.27;8.37;;;;;;;-2.73;98.46;92739.56;1027435;28;20099;-67
2020/12/28 01:23:22;;;;;;;11.40;8.20;;;;;;;-2.72;98.16;92741.88;1033395;28;20026;-68
2020/12/28 01:23:53;;;;;;;12.33;8.40;;;;;;;-2.71;98.29;92738.28;1038629;28;20033;-68
2020/12/28 01:24:23;;;;;;;11.73;8.10;;;;;;;-2.80;97.95;92732.13;1042869;28;20021;-67
2020/12/28 01:24:54;;;;;;;8.97;7.50;;;;;;;-2.75;98.18;92736.47;1038179;28;20037;-68
2020/12/28 01:25:24;;;;;;;11.63;8.87;;;;;;;-2.73;98.33;92734.44;1042821;28;20539;-68
2020/12/28 01:25:55;;;;;;;11.53;7.60;;;;;;;-2.74;98.35;92728.53;1038613;28;20036;-68
2020/12/28 01:26:25;;;;;;;11.70;7.97;;;;;;;-2.75;98.33;92728.78;1038761;28;20028;-70
2020/12/28 01:26:56;;;;;;;10.23;7.70;;;;;;;-2.77;98.15;92734.16;1042231;28;20499;-68
2020/12/28 01:27:27;;;;;;;13.27;8.30;;;;;;;-2.76;98.28;92729.81;1047218;28;20116;-67
2020/12/28 01:27:57;;;;;;;12.90;9.57;;;;;;;-2.74;98.16;92738.78;1046286;28;20031;-69
2020/12/28 01:28:28;;;;;;;14.47;9.70;;;;;;;-2.74;98.47;92727.78;1042475;28;20560;-68
2020/12/28 01:28:58;;;;;;;12.97;9.13;;;;;;;-2.73;98.42;92740.34;1042639;28;20025;-67
2020/12/28 01:29:29;;;;;;;11.43;8.43;;;;;;;-2.71;98.16;92729.84;1042850;28;20037;-68
2020/12/28 01:29:59;;;;;;;14.40;8.90;;;;;;;-2.73;98.27;92735.19;1046768;28;20095;-69
2020/12/28 01:30:29;;;;;;;14.07;8.80;;;;;;;-2.70;98.23;92728.78;1046997;28;20149;-68
2020/12/28 01:31:00;;;;;;;13.30;9.07;;;;;;;-2.73;98.45;92734.44;1046662;28;20534;-68
2020/12/28 01:31:30;;;;;;;13.50;8.60;;;;;;;-2.82;98.39;92721.31;1042742;28;20045;-67
2020/12/28 01:32:01;;;;;;;12.30;8.67;;;;;;;-2.72;98.26;92731.59;1038249;28;20036;-68
2020/12/28 01:32:31;;;;;;;12.07;8.47;;;;;;;-2.72;98.46;92726.47;1038826;28;20029;-69
2020/12/28 01:33:02;;;;;;;14.63;9.90;;;;;;;-2.72;98.55;92725.69;1038482;28;20048;-67
2020/12/28 01:33:32;;;;;;;13.23;9.00;;;;;;;-2.72;98.30;92726.47;1034056;28;20026;-68
2020/12/28 01:34:03;;;;;;;17.73;9.90;;;;;;;-2.72;98.47;92729.03;1038554;28;20095;-67
2020/12/28 01:34:33;;;;;;;13.73;9.37;;;;;;;-2.70;98.45;92726.22;1038766;28;20101;-71
2020/12/28 01:35:04;;;;;;;13.40;9.47;;;;;;;-2.67;98.81;92733.41;1034325;28;20116;-71
2020/12/28 01:35:34;;;;;;;13.37;9.40;;;;;;;-2.66;98.51;92734.94;1042715;28;20040;-69
2020/12/28 01:36:04;;;;;;;13.53;8.50;;;;;;;-2.68;98.40;92735.22;1042618;28;20044;-68
2020/12/28 01:36:35;;;;;;;15.80;9.47;;;;;;;-2.70;98.25;92733.94;1038649;28;20443;-67
2020/12/28 01:37:05;;;;;;;15.93;9.60;;;;;;;-2.69;98.17;92741.34;1038257;28;20037;-70
2020/12/28 01:37:36;;;;;;;14.03;9.07;;;;;;;-2.68;98.21;92737.03;1038622;28;20026;-68
2020/12/28 01:38:06;;;;;;;14.13;8.50;;;;;;;-2.73;98.42;92734.44;1042593;28;20076;-67
2020/12/28 01:38:37;;;;;;;10.23;7.63;;;;;;;-2.67;98.42;92738.56;1046701;28;20028;-67
2020/12/28 01:39:07;;;;;;;13.73;9.17;;;;;;;-2.70;98.45;92732.13;1042747;28;20028;-67
2020/12/28 01:39:39;;;;;;;10.40;8.13;;;;;;;-2.80;98.43;92721.84;1042763;28;20043;-67
2020/12/28 01:40:09;;;;;;;12.52;8.30;;;;;;;-2.68;98.74;92742.91;1042255;28;20044;-68
2020/12/28 01:40:40;;;;;;;13.30;7.93;;;;;;;-2.69;98.65;92736.22;1043296;28;20472;-67
2020/12/28 01:41:10;;;;;;;13.87;8.20;;;;;;;-2.75;98.52;92729.56;1042580;28;20083;-68
2020/12/28 01:41:41;;;;;;;12.90;8.13;;;;;;;-2.75;98.74;92721.88;1034791;28;20018;-67
2020/12/28 01:42:11;;;;;;;10.17;7.63;;;;;;;-2.79;98.75;92712.34;1034889;28;20124;-67
2020/12/28 01:42:42;;;;;;;13.13;8.63;;;;;;;-2.73;98.94;92724.94;1039293;28;20018;-68
2020/12/28 01:43:12;;;;;;;11.07;8.40;;;;;;;-2.72;98.75;92715.44;1039101;28;20109;-68
2020/12/28 01:43:43;;;;;;;11.97;8.00;;;;;;;-2.74;99.00;92713.13;1045010;28;20036;-68
2020/12/28 01:44:13;;;;;;;13.40;9.20;;;;;;;-2.73;98.74;92719.81;1042746;28;20075;-68
2020/12/28 01:44:44;;;;;;;15.83;9.33;;;;;;;-2.74;98.99;92713.13;1038952;28;20033;-68
2020/12/28 01:45:15;;;;;;;13.77;9.47;;;;;;;-2.77;99.39;92708.50;1038904;28;20527;-69
2020/12/28 01:45:45;;;;;;;15.30;9.53;;;;;;;-2.73;99.40;92704.41;1034591;28;20029;-70
2020/12/28 01:46:16;;;;;;;14.67;9.47;;;;;;;-2.72;99.22;92700.81;1038800;28;20287;-68
2020/12/28 01:46:46;;;;;;;16.07;9.90;;;;;;;-2.74;99.28;92697.75;1038594;28;20018;-69
2020/12/28 01:47:17;;;;;;;18.60;10.20;;;;;;;-2.74;99.55;92692.63;1042086;28;20021;-68
2020/12/28 01:47:47;;;;;;;16.70;9.97;;;;;;;-2.75;99.48;92703.13;1041749;28;20013;-70
2020/12/28 01:48:18;;;;;;;17.80;10.03;;;;;;;-2.82;99.37;92687.97;1038567;28;20480;-68
2020/12/28 01:48:48;;;;;;;17.70;9.73;;;;;;;-2.75;99.26;92693.66;1034402;28;20018;-69
2020/12/28 01:49:19;;;;;;;14.87;9.37;;;;;;;-2.75;99.86;92692.84;1034608;28;20030;-68
2020/12/28 01:49:49;;;;;;;15.13;9.27;;;;;;;-2.80;99.64;92691.06;1034418;28;20123;-68
2020/12/28 01:50:19;;;;;;;12.20;7.93;;;;;;;-2.83;99.72;92689.00;1039306;28;20052;-68
2020/12/28 01:50:50;;;;;;;14.90;8.67;;;;;;;-2.83;99.50;92680.53;1042727;28;20013;-70
2020/12/28 01:51:20;;;;;;;13.50;8.50;;;;;;;-2.90;99.46;92667.97;1038823;28;20021;-71
2020/12/28 01:51:51;;;;;;;11.90;8.63;;;;;;;-2.85;99.80;92671.31;1038379;28;20044;-68
2020/12/28 01:52:21;;;;;;;14.83;9.13;;;;;;;-2.85;99.88;92675.66;1038279;28;20033;-68
2020/12/28 01:52:52;;;;;;;15.83;9.77;;;;;;;-2.86;99.80;92669.75;1034721;28;20587;-69
2020/12/28 01:53:22;;;;;;;14.63;9.50;;;;;;;-2.95;100.00;92653.34;1034740;28;20058;-69
2020/12/28 01:53:53;;;;;;;12.83;9.20;;;;;;;-2.84;100.00;92664.38;1029543;28;20045;-68
2020/12/28 01:54:23;;;;;;;13.43;9.40;;;;;;;-2.95;100.00;92655.13;1038737;28;20037;-67
2020/12/28 01:54:54;;;;;;;17.23;9.27;;;;;;;-2.87;100.00;92673.34;1038575;28;20013;-69
2020/12/28 01:55:24;;;;;;;16.77;9.97;;;;;;;-3.09;100.00;92645.38;1038972;28;20018;-71
2020/12/28 01:55:56;;;;;;;15.53;10.33;;;;;;;-2.90;100.00;92678.22;1038485;28;20642;-68
2020/12/28 01:56:27;;;;;;;15.25;10.07;;;;;;;-2.92;100.00;92680.25;1030701;28;20077;-67
2020/12/28 01:56:57;;;;;;;14.10;9.20;;;;;;;-2.90;100.00;92694.38;1030350;28;20022;-68
2020/12/28 01:57:28;;;;;;;14.60;9.27;;;;;;;-2.96;100.00;92679.25;1031001;28;20106;-69
2020/12/28 01:57:58;;;;;;;15.90;9.33;;;;;;;-2.89;100.00;92697.72;1033645;28;20505;-71
2020/12/28 01:58:29;;;;;;;13.07;8.97;;;;;;;-2.90;100.00;92696.94;1038438;28;20384;-69
2020/12/28 01:58:59;;;;;;;11.10;8.37;;;;;;;-2.90;100.00;92699.50;1038312;28;20025;-68
2020/12/28 01:59:30;;;;;;;14.33;8.53;;;;;;;-2.89;100.00;92698.47;1038720;28;20092;-70
2020/12/28 02:00:01;;;;;;;11.97;9.03;;;;;;;-2.89;100.00;92702.84;1034677;28;20018;-70
2020/12/28 02:00:31;;;;;;;9.47;7.90;;;;;;;-2.95;100.00;92696.16;1042087;28;20481;-67
2020/12/28 02:01:02;;;;;;;10.27;7.93;;;;;;;-2.87;100.00;92703.38;1042879;28;20067;-67
2020/12/28 02:01:35;;;;;;;11.40;7.87;;;;;;;-2.87;100.00;92700.81;1038915;28;20520;-70
2020/12/28 02:02:05;;;;;;;9.40;6.95;;;;;;;-2.85;100.00;92707.22;1034338;28;20033;-68
2020/12/28 02:02:36;;;;;;;12.17;7.83;;;;;;;-2.83;100.00;92703.63;1034234;28;20033;-67
2020/12/28 02:03:07;;;;;;;12.60;8.40;;;;;;;-2.82;100.00;92708.50;1030544;28;20137;-69
2020/12/28 02:03:37;;;;;;;10.05;7.40;;;;;;;-2.81;100.00;92702.34;1026628;28;20035;-67
2020/12/28 02:04:08;;;;;;;10.53;7.23;;;;;;;-2.81;100.00;92707.50;1033712;28;20026;-67
2020/12/28 02:04:39;;;;;;;11.03;7.83;;;;;;;-2.87;100.00;92700.81;1034270;28;20033;-68
2020/12/28 02:05:09;;;;;;;14.87;8.13;;;;;;;-2.79;100.00;92715.69;1030626;28;20569;-68
2020/12/28 02:05:39;;;;;;;12.57;8.07;;;;;;;-2.82;100.00;92705.94;1038545;28;20088;-67
2020/12/28 02:06:10;;;;;;;12.37;8.00;;;;;;;-2.79;100.00;92710.56;1037842;28;20144;-68
2020/12/28 02:06:40;;;;;;;15.30;7.37;;;;;;;-2.75;100.00;92721.88;1030250;28;20018;-69
2020/12/28 02:07:11;;;;;;;10.63;7.83;;;;;;;-2.74;100.00;92718.28;1026609;28;20019;-69
2020/12/28 02:07:41;;;;;;;10.33;7.97;;;;;;;-2.76;99.67;92719.53;1038609;28;20025;-67
2020/12/28 02:08:12;;;;;;;11.13;7.77;;;;;;;-2.76;99.79;92714.41;1041765;28;20490;-67
2020/12/28 02:08:43;;;;;;;11.83;8.37;;;;;;;-2.79;99.73;92708.00;1042492;28;20040;-69
2020/12/28 02:09:13;;;;;;;11.10;7.83;;;;;;;-2.75;99.60;92705.69;1034633;28;20022;-68
2020/12/28 02:09:45;;;;;;;10.97;8.17;;;;;;;-2.81;99.86;92697.22;1034445;28;20620;-67
2020/12/28 02:10:15;;;;;;;12.80;7.72;;;;;;;-2.76;100.00;92702.34;1038535;28;20507;-67
2020/12/28 02:10:46;;;;;;;11.93;7.73;;;;;;;-2.83;99.82;92686.44;1039046;28;20060;-67
2020/12/28 02:11:16;;;;;;;10.47;7.60;;;;;;;-3.09;99.88;92645.38;1038477;28;20480;-68
2020/12/28 02:11:47;;;;;;;10.67;7.73;;;;;;;-2.76;99.98;92686.97;1034391;28;20076;-67
2020/12/28 02:12:17;;;;;;;12.03;8.37;;;;;;;-2.77;100.00;92687.22;1034355;28;20374;-68
2020/12/28 02:12:48;;;;;;;12.20;7.77;;;;;;;-2.74;100.00;92689.28;1037374;28;20053;-68
2020/12/28 02:13:18;;;;;;;11.37;7.17;;;;;;;-2.74;100.00;92681.59;1043806;28;20021;-68
2020/12/28 02:13:48;;;;;;;11.20;7.87;;;;;;;-2.73;100.00;92688.25;1041305;28;20829;-68
2020/12/28 02:14:19;;;;;;;12.30;7.67;;;;;;;-2.75;99.96;92693.66;1043716;28;20021;-68
2020/12/28 02:14:49;;;;;;;11.10;7.57;;;;;;;-2.97;99.71;92657.19;1045431;28;20025;-67
2020/12/28 02:15:20;;;;;;;10.37;8.07;;;;;;;-2.76;100.00;92686.19;1040990;28;20075;-69
2020/12/28 02:15:50;;;;;;;15.13;8.10;;;;;;;-2.75;100.00;92685.16;1043071;28;20028;-69
2020/12/28 02:16:21;;;;;;;10.87;7.50;;;;;;;-2.80;99.98;92675.66;1038826;28;20508;-68
2020/12/28 02:16:51;;;;;;;11.90;8.40;;;;;;;-2.75;99.91;92680.81;1042941;28;20017;-68
2020/12/28 02:17:25;;;;;;;12.82;8.35;;;;;;;-2.76;99.99;92674.13;1035312;28;20030;-70
2020/12/28 02:17:55;;;;;;;11.97;7.87;;;;;;;-2.76;100.00;92679.25;1034963;28;20037;-68
2020/12/28 02:18:26;;;;;;;10.87;7.60;;;;;;;-2.84;100.00;92672.09;1034123;28;20445;-68
2020/12/28 02:18:56;;;;;;;12.47;7.87;;;;;;;-2.74;100.00;92679.03;1033214;28;20022;-68
2020/12/28 02:19:27;;;;;;;10.10;7.57;;;;;;;-2.74;100.00;92684.91;1038458;28;20175;-69
2020/12/28 02:19:58;;;;;;;9.90;7.88;;;;;;;-2.74;100.00;92682.34;1038605;28;20033;-67
2020/12/28 02:20:28;;;;;;;11.37;7.67;;;;;;;-2.74;100.00;92673.88;1038524;28;20037;-68
2020/12/28 02:20:59;;;;;;;11.93;8.00;;;;;;;-2.76;100.00;92674.13;1042585;28;20025;-70
2020/12/28 02:21:29;;;;;;;11.90;7.87;;;;;;;-2.78;99.92;92668.50;1039580;28;20029;-67
2020/12/28 02:22:00;;;;;;;10.43;7.87;;;;;;;-2.77;100.00;92672.59;1034420;28;20034;-68
2020/12/28 02:22:30;;;;;;;9.50;7.20;;;;;;;-2.77;100.00;92662.34;1030456;28;20034;-68